静岡空港の過去48時間の天気

静岡空港 (Shizuoka)

現在時刻: 1/19 20:27 JST (1/19 11:27 UTC) 以下の時間は現地時間です。

過去48時間のMETAR気象情報
時間 風向 風速(m/s) 視程 気温(℃) 湿度(%) 気圧(hPa) 天気現象
19 20:00 西 9 10km以上 7 49 1019
19 19:00 西南西 9 10km以上 7 49 1018
19 18:00 西南西 9 10km以上 8 46 1018
19 17:00 西南西 8 10km以上 9 40 1017
19 16:00 西 10 10km以上 11 30 1017
19 15:00 西 9 10km以上 12 30 1017
19 14:00 西 11 10km以上 13 28 1017
19 13:00 西 10 10km以上 12 28 1018
19 12:00 西南西 8 10km以上 11 32 1019
19 11:00 西南西 6 10km以上 10 32 1020
19 10:00 西北西 5 10km以上 8 37 1021
19 09:00 西 5 10km以上 6 42 1021
19 08:00 西北西 6 10km以上 4 48 1020
19 07:30 西北西 7 10km以上 2 55 1021
18 21:00 西 10 10km以上 4 41 1019
18 20:00 西 9 10km以上 5 33 1019
18 19:00 西 10 10km以上 5 36 1018
18 18:00 西 9 10km以上 6 31 1018
18 17:00 西 9 10km以上 7 29 1017
18 16:00 西 9 10km以上 9 23 1016
18 15:00 西 9 10km以上 9 23 1015
18 14:00 西 12 10km以上 10 18 1014
18 13:00 西北西 11 10km以上 10 16 1014
18 12:00 西 13 10km以上 10 16 1015
18 11:00 西北西 9 10km以上 9 17 1015
18 10:00 西 8 10km以上 8 21 1016
18 09:00 西 8 10km以上 7 23 1015
18 08:00 西 7 10km以上 6 24 1015
18 07:30 西 8 10km以上 5 28 1015
17 21:00 西 8 10km以上 5 65 1011
RJNS 191100Z 26018KT 9999 FEW030 07/M03 Q1019
RJNS 191000Z 25018KT 9999 FEW030 SCT/// 07/M03 Q1018
RJNS 190900Z 25017KT 9999 FEW030 SCT/// 08/M03 Q1018
RJNS 190800Z 25016KT 9999 FEW030 09/M04 Q1017
RJNS 190700Z 26019KT 9999 FEW030 11/M06 Q1017
RJNS 190600Z 26018KT 9999 FEW030 12/M05 Q1017
RJNS 190500Z 26021KT 9999 FEW030 SCT/// 13/M05 Q1017
RJNS 190400Z 26020KT 9999 FEW030 12/M06 Q1018
RJNS 190300Z 25016G27KT 9999 FEW030 11/M05 Q1019
RJNS 190200Z 25011KT 220V290 9999 FEW030 10/M06 Q1020
RJNS 190100Z 30010KT 270V330 9999 FEW030 08/M06 Q1021
RJNS 190000Z 27009KT 9999 FEW030 06/M06 Q1021
RJNS 182300Z 29011KT 9999 FEW030 04/M06 Q1020
RJNS 182230Z 29013KT 9999 FEW030 02/M06 Q1021
RJNS 181200Z 26019KT 9999 FEW030 04/M08 Q1019
RJNS 181100Z 27017KT 9999 FEW030 05/M10 Q1019
RJNS 181000Z 27019KT 9999 FEW030 05/M09 Q1018
RJNS 180900Z 26017KT 9999 FEW030 06/M10 Q1018
RJNS 180800Z 27018KT 9999 FEW030 07/M10 Q1017
RJNS 180700Z 27018KT 9999 FEW030 09/M11 Q1016
RJNS 180600Z 27018KT 9999 FEW030 09/M11 Q1015
RJNS 180500Z 28024KT 9999 FEW030 10/M13 Q1014
RJNS 180400Z 29021KT 9999 FEW030 10/M15 Q1014
RJNS 180300Z 27025KT 9999 FEW030 10/M15 Q1015
RJNS 180200Z 29017KT 9999 FEW030 09/M15 Q1015
RJNS 180100Z 27016KT 9999 FEW030 08/M13 Q1016
RJNS 180000Z 27015KT 240V310 9999 FEW030 07/M13 Q1015
RJNS 172300Z 27013KT 240V300 9999 FEW030 06/M13 Q1015
RJNS 172230Z 28015KT 9999 FEW030 05/M12 Q1015
RJNS 171200Z 27016KT 9999 FEW030 05/M01 Q1011